Alma, WV (26320)

9:00 AM EST on January 29, 2015 (GMT -0500)
RAWS CONAWAY LAKE WV US | Change Station
CLOSE
Current Station
Personal Weather Station
Location: Alma, WV
Elevation: 1189 ft
Nearby Weather Stations

Elev 1189 ft 39.45 °N, 80.87 °W | Updated 44 minutes ago

Partly Cloudy
Partly Cloudy
28 °F
Feels Like 19 °F
N
10
Wind Variable Wind from SE
Gusts 15.0 mph

Today
High -- | Low -- °F
--% Chance of Precip.
Yesterday
High -- | Low -- °F
Precip. -- in
7:33 AM 5:39 PM
Waxing Gibbous, 74% visible
Pressure 30.06 in
Visibility 10.0 miles
Clouds Clear
Windchill 19 °F
Dew Point 15 °F
Humidity 57%
Rainfall 0.17 in
Snow Depth Not available.
UV 1 out of 12
Pollen .10 out of 12
Air Quality Not available.
Flu Activity Not available.
METAR KCKB 291353Z 00000KT 10SM CLR M04/M07 A3003 RMK AO2 SLP180 T10391067

More Conditions Fewer Conditions

Pressure 30.06 in
Visibility 10.0 miles
Clouds Clear
Windchill 19 °F
Dew Point 15 °F
Humidity 57%
Rainfall 0.17 in
Snow Depth Not available.
UV 1 out of 12
Pollen .10 out of 12
Air Quality Not available.
Flu Activity Not available.
METAR KCKB 291353Z 00000KT 10SM CLR M04/M07 A3003 RMK AO2 SLP180 T10391067

More Conditions Fewer Conditions

10-Day Weather Forecast

Almanac

Astronomy

Jan. 29, 2015 Rise Set
Actual Time
Civil Twilight
Nautical Twilight
Astronomical Twilight
Moon
Length of Visible Light
Length of Day
Tomorrow will be .
, % of the Moon is Illuminated

Today's Extremes

State Highs State Lows

Community

WunderPhotos

Upload Photos

1,791,434 photos uploaded!

WunderBlogs® & News

Nearby

Air Quality

  Air Quality AQ Index Pollutant
Not available.

Snow Depth

Station Depth Elevation

Earthquake Activity

City Distance Mag. Time & Date
Minimum magnitude displayed is 2.5.

Coastal Water Temperatures

Place Temperature

Nearby Weather Stations